createdAt,value
2023-02-08T00:00:48.303Z,15.05
2023-02-08T00:03:51.500Z,15.23
2023-02-08T00:06:54.016Z,12.77
2023-02-08T00:09:58.769Z,14.25
2023-02-08T00:13:01.255Z,13.93
2023-02-08T00:16:04.433Z,11.35
2023-02-08T00:19:06.620Z,12.68
2023-02-08T00:22:11.675Z,18.13
2023-02-08T00:25:13.749Z,12.80
2023-02-08T00:28:17.173Z,14.50
2023-02-08T00:31:19.360Z,15.10
2023-02-08T00:34:21.559Z,15.75
2023-02-08T00:37:24.346Z,17.38
2023-02-08T00:40:27.288Z,15.68
2023-02-08T00:43:29.440Z,14.20
2023-02-08T00:46:33.254Z,15.40
2023-02-08T00:49:35.434Z,12.90
2023-02-08T00:52:38.758Z,15.15
2023-02-08T00:55:41.412Z,17.10
2023-02-08T00:58:44.978Z,12.35
2023-02-08T01:01:49.148Z,16.48
2023-02-08T01:04:51.354Z,16.42
2023-02-08T01:07:53.638Z,12.20
2023-02-08T01:11:04.676Z,15.52
2023-02-08T01:14:06.922Z,13.50
2023-02-08T01:17:09.099Z,13.70
2023-02-08T01:20:11.985Z,14.38
2023-02-08T01:23:14.131Z,16.23
2023-02-08T01:26:18.205Z,14.27
2023-02-08T01:29:20.730Z,14.85
2023-02-08T01:32:22.847Z,10.68
2023-02-08T01:35:24.998Z,13.90
2023-02-08T01:38:27.064Z,15.30
2023-02-08T01:41:32.686Z,13.18
2023-02-08T01:45:12.110Z,16.13
2023-02-08T01:48:23.361Z,13.53
2023-02-08T01:51:31.573Z,12.77
2023-02-08T01:54:39.160Z,12.40
2023-02-08T01:57:43.011Z,17.53
2023-02-08T02:00:45.991Z,13.50
2023-02-08T02:03:48.275Z,19.25
2023-02-08T02:06:58.910Z,18.83
2023-02-08T02:10:11.032Z,15.57
2023-02-08T02:13:24.964Z,12.10
2023-02-08T02:16:27.116Z,16.65
2023-02-08T02:19:31.999Z,15.27
2023-02-08T02:23:01.945Z,16.58
2023-02-08T02:26:40.693Z,13.82
2023-02-08T02:30:10.587Z,16.02
2023-02-08T02:33:16.501Z,15.77
2023-02-08T02:36:32.750Z,20.05
2023-02-08T02:39:58.701Z,17.25
2023-02-08T02:43:21.922Z,14.23
2023-02-08T02:46:29.121Z,16.92
2023-02-08T02:49:38.594Z,16.95
2023-02-08T02:52:48.798Z,15.60
2023-02-08T02:55:58.854Z,15.32
2023-02-08T02:59:05.682Z,14.38
2023-02-08T03:02:09.066Z,11.60
2023-02-08T03:05:13.672Z,16.38
2023-02-08T03:08:40.457Z,14.55
2023-02-08T03:11:53.451Z,14.02
2023-02-08T03:15:16.812Z,16.55
2023-02-08T03:18:21.571Z,15.38
2023-02-08T03:21:35.493Z,16.38
2023-02-08T03:24:37.532Z,13.55
2023-02-08T03:27:49.601Z,16.58
2023-02-08T03:31:13.324Z,19.23
2023-02-08T03:34:19.298Z,16.35
2023-02-08T03:37:30.255Z,16.52
2023-02-08T03:40:56.333Z,21.58
2023-02-08T03:44:06.386Z,17.40
2023-02-08T03:47:19.914Z,22.77
2023-02-08T03:50:24.231Z,15.95
2023-02-08T03:53:27.763Z,19.85
2023-02-08T03:56:41.852Z,18.25
2023-02-08T03:59:50.312Z,18.02
2023-02-08T04:02:57.862Z,19.63
2023-02-08T04:06:00.181Z,18.75
2023-02-08T04:09:02.266Z,15.45
2023-02-08T04:12:05.731Z,19.67
2023-02-08T04:15:08.767Z,15.85
2023-02-08T04:18:11.002Z,22.75
2023-02-08T04:21:13.525Z,20.00
2023-02-08T04:24:15.556Z,20.48
2023-02-08T04:27:17.841Z,18.33
2023-02-08T04:30:20.010Z,19.60
2023-02-08T04:33:22.159Z,16.40
2023-02-08T04:36:24.364Z,16.52
2023-02-08T04:39:26.455Z,22.00
2023-02-08T04:42:28.553Z,17.95
2023-02-08T04:45:32.182Z,22.17
2023-02-08T04:48:34.750Z,19.20
2023-02-08T04:51:36.975Z,19.20
2023-02-08T04:54:40.858Z,19.25
2023-02-08T04:57:45.071Z,20.90
2023-02-08T05:00:47.104Z,20.10
2023-02-08T05:03:49.290Z,23.65
2023-02-08T05:06:51.292Z,19.45
2023-02-08T05:09:53.473Z,20.00
2023-02-08T05:12:55.447Z,23.88
2023-02-08T05:15:57.991Z,23.73
2023-02-08T05:19:01.106Z,21.02
2023-02-08T05:22:03.216Z,21.70
2023-02-08T05:25:05.754Z,24.85
2023-02-08T05:28:07.835Z,21.33
2023-02-08T05:31:24.872Z,21.08
2023-02-08T05:34:27.093Z,20.42
2023-02-08T05:37:29.106Z,23.92
2023-02-08T05:43:33.645Z,23.42
2023-02-08T05:46:38.074Z,19.95
2023-02-08T05:49:40.680Z,22.33
2023-02-08T05:52:42.781Z,20.63
2023-02-08T05:55:46.619Z,24.55
2023-02-08T05:58:48.702Z,20.02
2023-02-08T06:01:51.238Z,22.40
2023-02-08T06:04:53.338Z,20.08
2023-02-08T06:07:55.422Z,25.50
2023-02-08T06:10:57.465Z,22.80
2023-02-08T06:13:59.949Z,22.95
2023-02-08T06:17:01.941Z,25.13
2023-02-08T06:20:05.323Z,23.25
2023-02-08T06:23:07.513Z,22.08
2023-02-08T06:26:09.609Z,23.48
2023-02-08T06:29:11.710Z,24.73
2023-02-08T06:32:13.929Z,27.40
2023-02-08T06:35:16.175Z,21.83
2023-02-08T06:38:18.348Z,24.25
2023-02-08T06:41:20.959Z,24.20
2023-02-08T06:44:23.253Z,26.15
2023-02-08T06:47:30.965Z,18.88
2023-02-08T06:50:33.037Z,22.17
2023-02-08T06:53:35.135Z,23.90
2023-02-08T06:56:37.522Z,22.63
2023-02-08T06:59:40.388Z,21.48
2023-02-08T07:02:42.732Z,19.33
2023-02-08T07:05:58.686Z,14.05
2023-02-08T07:09:05.949Z,25.50
2023-02-08T07:12:08.356Z,27.73
2023-02-08T07:15:13.398Z,33.30
2023-02-08T07:18:15.634Z,27.42
2023-02-08T07:21:17.819Z,30.50
2023-02-08T07:24:20.744Z,28.30
2023-02-08T07:27:25.028Z,25.70
2023-02-08T07:30:28.230Z,26.08
2023-02-08T07:33:30.893Z,28.48
2023-02-08T07:36:38.120Z,22.73
2023-02-08T07:39:40.400Z,26.95
2023-02-08T07:42:42.478Z,27.00
2023-02-08T07:45:57.098Z,27.33
2023-02-08T07:48:59.257Z,22.75
2023-02-08T07:52:02.030Z,27.65
2023-02-08T07:55:04.240Z,23.58
2023-02-08T07:58:10.074Z,25.98
2023-02-08T08:01:22.358Z,28.35
2023-02-08T08:04:26.775Z,28.05
2023-02-08T08:07:28.794Z,26.45
2023-02-08T08:10:32.538Z,27.60
2023-02-08T08:13:36.846Z,29.88
2023-02-08T08:16:38.996Z,27.23
2023-02-08T08:19:41.602Z,26.15
2023-02-08T08:22:43.998Z,28.58
2023-02-08T08:25:46.228Z,24.65
2023-02-08T08:28:49.630Z,27.27
2023-02-08T08:31:58.826Z,26.60
2023-02-08T08:35:01.133Z,40.55
2023-02-08T08:38:09.302Z,25.13
2023-02-08T08:41:15.057Z,29.08
2023-02-08T08:44:17.775Z,32.05
2023-02-08T08:47:20.823Z,24.95
2023-02-08T08:50:23.377Z,26.02
2023-02-08T08:53:27.279Z,27.15
2023-02-08T08:56:30.241Z,29.73
2023-02-08T08:59:33.220Z,25.80
2023-02-08T09:02:35.598Z,34.40
2023-02-08T09:05:37.688Z,30.15
2023-02-08T09:08:41.311Z,34.28
2023-02-08T09:11:43.497Z,32.03
2023-02-08T09:14:45.597Z,31.77
2023-02-08T09:17:47.743Z,33.97
2023-02-08T09:20:50.266Z,30.38
2023-02-08T09:23:52.424Z,33.40
2023-02-08T09:26:55.619Z,29.92
2023-02-08T09:30:00.444Z,38.45
2023-02-08T09:33:06.273Z,28.17
2023-02-08T09:36:09.726Z,30.65
2023-02-08T09:39:19.268Z,26.73
2023-02-08T09:42:30.428Z,27.17
2023-02-08T09:46:08.296Z,30.15
2023-02-08T09:49:18.971Z,25.25
2023-02-08T09:52:27.801Z,27.90
2023-02-08T09:55:35.229Z,26.98
2023-02-08T09:58:44.955Z,29.27
2023-02-08T10:01:49.927Z,30.13
2023-02-08T10:05:03.826Z,28.88
2023-02-08T10:08:09.904Z,28.13
2023-02-08T10:11:40.115Z,27.98
2023-02-08T10:15:00.983Z,24.83
2023-02-08T10:18:41.226Z,24.63
2023-02-08T10:21:56.130Z,28.83
2023-02-08T10:25:25.597Z,35.00
2023-02-08T10:32:15.162Z,33.00
2023-02-08T10:35:39.565Z,26.77
2023-02-08T10:38:46.810Z,28.02
2023-02-08T10:41:50.553Z,32.00
2023-02-08T10:45:01.666Z,21.83
2023-02-08T10:48:10.717Z,32.47
2023-02-08T10:51:16.944Z,25.15
2023-02-08T10:54:19.173Z,29.83
2023-02-08T10:57:26.094Z,30.80
2023-02-08T11:00:32.517Z,24.33
2023-02-08T11:03:35.868Z,26.88
2023-02-08T11:06:41.864Z,24.25
2023-02-08T11:09:43.996Z,28.23
2023-02-08T11:12:56.734Z,23.33
2023-02-08T11:16:01.489Z,26.05
2023-02-08T11:19:08.478Z,25.55
2023-02-08T11:22:18.035Z,25.63
2023-02-08T11:25:39.626Z,25.75
2023-02-08T11:28:42.323Z,25.63
2023-02-08T11:32:02.604Z,32.42
2023-02-08T11:35:24.538Z,22.80
2023-02-08T11:38:28.692Z,26.55
2023-02-08T11:41:34.050Z,33.60
2023-02-08T11:44:44.234Z,34.75
2023-02-08T11:47:48.532Z,29.83
2023-02-08T11:50:58.023Z,29.85
2023-02-08T11:54:04.636Z,26.38
2023-02-08T12:06:17.504Z,33.00
2023-02-08T12:10:29.904Z,61.08
2023-02-08T12:14:32.985Z,38.17
2023-02-08T12:18:22.741Z,33.33
2023-02-08T12:21:29.766Z,29.23
2023-02-08T12:24:56.943Z,36.97
2023-02-08T12:28:31.044Z,28.48
2023-02-08T12:32:06.388Z,26.27
2023-02-08T12:35:48.298Z,35.20
2023-02-08T12:39:51.821Z,36.85
2023-02-08T12:43:13.965Z,32.25
2023-02-08T12:46:49.887Z,28.48
2023-02-08T12:50:19.873Z,37.33
2023-02-08T12:53:31.141Z,33.15
2023-02-08T12:56:39.111Z,35.28
2023-02-08T12:59:55.781Z,36.92
2023-02-08T13:03:10.269Z,34.28
2023-02-08T13:06:20.771Z,50.45
2023-02-08T13:09:49.040Z,29.50
2023-02-08T13:12:53.703Z,32.90
2023-02-08T13:16:36.713Z,32.22
2023-02-08T13:19:58.997Z,28.65
2023-02-08T13:23:07.960Z,28.92
2023-02-08T13:26:23.692Z,41.63
2023-02-08T13:29:28.339Z,35.45
2023-02-08T13:32:44.481Z,29.33
2023-02-08T13:35:53.505Z,32.50
2023-02-08T13:38:58.403Z,28.63
2023-02-08T13:42:01.961Z,26.20
2023-02-08T13:45:07.788Z,31.48
2023-02-08T13:48:18.677Z,30.83
2023-02-08T13:51:34.288Z,30.77
2023-02-08T13:54:36.312Z,33.03
2023-02-08T13:57:53.501Z,31.98
2023-02-08T14:00:56.622Z,37.15
2023-02-08T14:04:07.764Z,37.72
2023-02-08T14:07:36.393Z,36.67
2023-02-08T14:10:46.805Z,36.35
2023-02-08T14:13:59.418Z,35.28
2023-02-08T14:17:04.266Z,36.08
2023-02-08T14:20:07.738Z,39.55
2023-02-08T14:23:26.424Z,34.78
2023-02-08T14:26:29.202Z,38.40
2023-02-08T14:29:33.107Z,33.97
2023-02-08T14:32:39.039Z,33.08
2023-02-08T14:35:50.781Z,35.92
2023-02-08T14:38:55.090Z,35.33
2023-02-08T14:42:01.790Z,32.38
2023-02-08T14:45:05.202Z,38.40
2023-02-08T14:48:19.473Z,34.58
2023-02-08T14:51:32.295Z,31.25
2023-02-08T14:54:46.660Z,36.75
2023-02-08T14:57:49.141Z,36.05
2023-02-08T15:00:54.282Z,35.25
2023-02-08T15:04:02.313Z,40.50
2023-02-08T15:07:15.647Z,32.13
2023-02-08T15:10:20.569Z,40.67
2023-02-08T15:13:27.697Z,38.63
2023-02-08T15:16:41.805Z,42.47
2023-02-08T15:19:46.600Z,37.90
2023-02-08T15:22:49.163Z,36.78
2023-02-08T15:25:56.914Z,38.72
2023-02-08T15:29:03.361Z,42.30
2023-02-08T15:32:14.387Z,44.95
2023-02-08T15:35:24.381Z,41.22
2023-02-08T15:38:27.293Z,39.30
2023-02-08T15:41:34.011Z,33.22
2023-02-08T15:44:36.193Z,32.60
2023-02-08T15:47:39.994Z,36.97
2023-02-08T15:50:42.387Z,37.90
2023-02-08T15:53:48.538Z,43.95
2023-02-08T15:57:05.365Z,37.22
2023-02-08T16:00:39.798Z,37.17
2023-02-08T16:03:48.377Z,35.30
2023-02-08T16:09:58.002Z,38.47
2023-02-08T16:13:06.005Z,35.35
2023-02-08T16:16:18.729Z,39.20
2023-02-08T16:19:29.268Z,36.60
2023-02-08T16:22:33.646Z,39.85
2023-02-08T16:25:45.465Z,43.05
2023-02-08T16:29:00.927Z,41.97
2023-02-08T16:32:13.347Z,43.72
2023-02-08T16:35:25.365Z,37.63
2023-02-08T16:38:31.548Z,47.05
2023-02-08T16:41:57.238Z,41.92
2023-02-08T16:45:17.308Z,41.60
2023-02-08T16:48:35.019Z,51.35
2023-02-08T16:51:39.629Z,47.15
2023-02-08T16:54:42.231Z,43.38
2023-02-08T16:58:00.167Z,50.00
2023-02-08T17:01:03.831Z,41.63
2023-02-08T17:04:08.467Z,53.92
2023-02-08T17:07:30.135Z,55.35
2023-02-08T17:10:36.070Z,55.67
2023-02-08T17:13:41.685Z,45.30
2023-02-08T17:16:44.720Z,55.72
2023-02-08T17:19:48.000Z,44.88
2023-02-08T17:22:52.361Z,47.40
2023-02-08T17:26:06.371Z,55.15
2023-02-08T17:29:13.535Z,47.55
2023-02-08T17:32:16.376Z,44.70
2023-02-08T17:35:19.636Z,46.30
2023-02-08T17:38:22.201Z,46.38
2023-02-08T17:41:31.469Z,45.17
2023-02-08T17:44:43.890Z,49.08
2023-02-08T17:47:47.071Z,51.28
2023-02-08T17:50:52.464Z,48.63
2023-02-08T17:53:58.193Z,57.25
2023-02-08T17:57:00.682Z,38.05
2023-02-08T18:00:05.926Z,38.45
2023-02-08T18:03:14.074Z,37.03
2023-02-08T18:06:18.311Z,38.88
2023-02-08T18:09:32.956Z,50.13
2023-02-08T18:13:16.335Z,40.72
2023-02-08T18:16:38.414Z,51.50
2023-02-08T18:19:40.667Z,49.80
2023-02-08T18:22:47.886Z,43.20
2023-02-08T18:25:50.968Z,52.47
2023-02-08T18:28:55.601Z,50.35
2023-02-08T18:31:57.801Z,50.63
2023-02-08T18:35:04.261Z,60.30
2023-02-08T18:38:06.532Z,49.80
2023-02-08T18:41:21.474Z,67.07
2023-02-08T18:44:23.618Z,53.20
2023-02-08T18:47:25.768Z,58.10
2023-02-08T18:50:29.467Z,53.03
2023-02-08T18:53:35.178Z,64.50
2023-02-08T18:56:37.214Z,55.92
2023-02-08T18:59:41.647Z,61.45
2023-02-08T19:02:47.177Z,57.75
2023-02-08T19:05:49.946Z,72.38
2023-02-08T19:08:54.997Z,64.35
2023-02-08T19:11:57.718Z,76.05
2023-02-08T19:14:59.946Z,68.20
2023-02-08T19:18:02.402Z,74.45
2023-02-08T19:21:12.936Z,66.00
2023-02-08T19:24:15.670Z,69.88
2023-02-08T19:27:18.857Z,69.97
2023-02-08T19:30:22.476Z,69.32
2023-02-08T19:33:26.082Z,74.30
2023-02-08T19:36:33.512Z,77.22
2023-02-08T19:39:41.137Z,68.13
2023-02-08T19:42:46.458Z,76.30
2023-02-08T19:45:48.631Z,77.03
2023-02-08T19:48:53.282Z,78.53
2023-02-08T19:51:56.890Z,81.57
2023-02-08T19:54:59.279Z,87.57
2023-02-08T19:58:03.548Z,94.25
2023-02-08T20:01:17.862Z,87.43
2023-02-08T20:04:24.776Z,85.82
2023-02-08T20:07:26.872Z,95.18
2023-02-08T20:10:28.905Z,94.45
2023-02-08T20:13:31.055Z,94.07
2023-02-08T20:16:34.093Z,101.35
2023-02-08T20:19:38.503Z,93.90
2023-02-08T20:22:40.941Z,105.97
2023-02-08T20:25:43.442Z,86.10
2023-02-08T20:28:51.610Z,96.05
2023-02-08T20:31:56.087Z,89.10
2023-02-08T20:35:00.137Z,88.45
2023-02-08T20:38:02.929Z,97.40
2023-02-08T20:41:11.003Z,105.63
2023-02-08T20:44:23.071Z,89.70
2023-02-08T20:47:27.387Z,97.35
2023-02-08T20:50:31.019Z,93.65
2023-02-08T20:53:34.755Z,95.75
2023-02-08T20:56:38.277Z,103.55
2023-02-08T20:59:42.371Z,94.05
2023-02-08T21:02:44.463Z,98.00
2023-02-08T21:05:46.834Z,90.97
2023-02-08T21:08:51.840Z,93.32
2023-02-08T21:11:54.210Z,98.22
2023-02-08T21:15:15.088Z,103.05
2023-02-08T21:18:17.251Z,113.97
2023-02-08T21:21:20.534Z,99.07
2023-02-08T21:24:26.494Z,103.82
2023-02-08T21:27:29.424Z,97.72
2023-02-08T21:30:32.113Z,82.13
2023-02-08T21:33:37.276Z,97.95
2023-02-08T21:36:40.863Z,84.75
2023-02-08T21:39:45.425Z,98.20
2023-02-08T21:42:49.056Z,88.35
2023-02-08T21:45:51.945Z,92.28
2023-02-08T21:49:14.149Z,96.97
2023-02-08T21:52:36.128Z,92.53
2023-02-08T21:55:38.366Z,92.05
2023-02-08T21:58:40.516Z,90.63
2023-02-08T22:01:42.950Z,90.82
2023-02-08T22:05:03.908Z,92.88
2023-02-08T22:08:06.042Z,86.18
2023-02-08T22:11:09.017Z,76.53
2023-02-08T22:14:12.618Z,87.57
2023-02-08T22:17:15.283Z,84.93
2023-02-08T22:20:17.484Z,89.25
2023-02-08T22:23:19.826Z,80.30
2023-02-08T22:26:22.056Z,77.18
2023-02-08T22:29:24.111Z,76.55
2023-02-08T22:32:26.216Z,75.28
2023-02-08T22:35:28.307Z,76.15
2023-02-08T22:38:30.333Z,93.03
2023-02-08T22:41:32.527Z,78.55
2023-02-08T22:44:39.140Z,75.53
2023-02-08T22:47:41.505Z,80.50
2023-02-08T22:50:44.482Z,72.47
2023-02-08T22:53:47.023Z,79.55
2023-02-08T22:56:49.164Z,75.28
2023-02-08T22:59:52.028Z,78.75
2023-02-08T23:02:54.126Z,79.55
2023-02-08T23:05:56.878Z,80.40
2023-02-08T23:08:59.200Z,66.18
2023-02-08T23:12:01.592Z,67.90
2023-02-08T23:15:04.784Z,65.72
2023-02-08T23:18:08.468Z,76.28
2023-02-08T23:21:13.803Z,75.03
2023-02-08T23:24:17.117Z,77.85
2023-02-08T23:27:19.382Z,77.35
2023-02-08T23:30:21.588Z,67.22
2023-02-08T23:33:23.667Z,73.00
2023-02-08T23:36:25.881Z,68.13
2023-02-08T23:39:27.886Z,60.80
2023-02-08T23:42:29.877Z,71.82
2023-02-08T23:45:32.141Z,73.05
2023-02-08T23:48:36.733Z,65.05
2023-02-08T23:51:40.086Z,69.72
2023-02-08T23:54:42.362Z,71.90
2023-02-08T23:57:44.373Z,64.07
